sensor_id;sensor_type;location;lat;lon;timestamp;P1;durP1;ratioP1;P2;durP2;ratioP2
19727;SDS011;10015;52.530;13.390;2022-10-23T05:30:31;9.27;;;5.10;;
19727;SDS011;10015;52.530;13.390;2022-10-23T05:33:00;14.10;;;6.10;;
19727;SDS011;10015;52.530;13.390;2022-10-23T05:35:28;11.03;;;5.83;;
19727;SDS011;10015;52.530;13.390;2022-10-23T05:37:55;11.57;;;5.57;;
19727;SDS011;10015;52.530;13.390;2022-10-23T05:40:24;10.83;;;5.80;;
19727;SDS011;10015;52.530;13.390;2022-10-23T05:42:56;7.77;;;5.23;;
19727;SDS011;10015;52.530;13.390;2022-10-23T05:45:34;9.50;;;6.03;;
19727;SDS011;10015;52.530;13.390;2022-10-23T05:48:20;8.63;;;5.63;;
19727;SDS011;10015;52.530;13.390;2022-10-23T05:51:06;11.03;;;5.23;;
19727;SDS011;10015;52.530;13.390;2022-10-23T05:53:54;9.20;;;5.30;;
19727;SDS011;10015;52.530;13.390;2022-10-23T05:56:39;12.83;;;5.90;;
19727;SDS011;10015;52.530;13.390;2022-10-23T05:59:18;9.67;;;5.60;;
19727;SDS011;10015;52.530;13.390;2022-10-23T06:01:50;10.13;;;5.47;;
19727;SDS011;10015;52.530;13.390;2022-10-23T06:04:45;13.07;;;6.30;;
19727;SDS011;10015;52.530;13.390;2022-10-23T06:07:13;11.17;;;5.57;;
19727;SDS011;10015;52.530;13.390;2022-10-23T06:09:42;9.33;;;4.90;;
19727;SDS011;10015;52.530;13.390;2022-10-23T06:12:08;8.00;;;5.10;;
19727;SDS011;10015;52.530;13.390;2022-10-23T06:14:34;9.97;;;5.77;;
19727;SDS011;10015;52.530;13.390;2022-10-23T06:17:01;10.23;;;5.77;;
19727;SDS011;10015;52.530;13.390;2022-10-23T06:19:27;9.10;;;5.27;;
19727;SDS011;10015;52.530;13.390;2022-10-23T06:21:55;9.23;;;5.27;;
19727;SDS011;10015;52.530;13.390;2022-10-23T06:24:30;9.67;;;5.60;;
19727;SDS011;10015;52.530;13.390;2022-10-23T06:27:01;9.73;;;5.77;;
19727;SDS011;10015;52.530;13.390;2022-10-23T06:29:46;11.40;;;5.70;;
19727;SDS011;10015;52.530;13.390;2022-10-23T06:32:12;11.67;;;5.73;;
19727;SDS011;10015;52.530;13.390;2022-10-23T06:34:42;9.60;;;6.07;;
19727;SDS011;10015;52.530;13.390;2022-10-23T06:37:08;14.67;;;6.30;;
19727;SDS011;10015;52.530;13.390;2022-10-23T06:39:43;12.47;;;5.70;;
19727;SDS011;10015;52.530;13.390;2022-10-23T06:42:15;8.57;;;5.33;;
19727;SDS011;10015;52.530;13.390;2022-10-23T06:44:53;8.70;;;5.17;;
19727;SDS011;10015;52.530;13.390;2022-10-23T06:47:42;9.17;;;5.57;;
19727;SDS011;10015;52.530;13.390;2022-10-23T06:50:47;13.57;;;6.07;;
19727;SDS011;10015;52.530;13.390;2022-10-23T06:53:18;10.63;;;6.30;;
19727;SDS011;10015;52.530;13.390;2022-10-23T06:55:50;11.97;;;6.73;;
19727;SDS011;10015;52.530;13.390;2022-10-23T06:58:17;12.30;;;6.37;;
19727;SDS011;10015;52.530;13.390;2022-10-23T07:01:06;9.60;;;6.10;;
19727;SDS011;10015;52.530;13.390;2022-10-23T07:03:34;12.43;;;6.30;;
19727;SDS011;10015;52.530;13.390;2022-10-23T07:06:04;8.93;;;5.90;;
19727;SDS011;10015;52.530;13.390;2022-10-23T07:08:31;13.27;;;6.67;;
19727;SDS011;10015;52.530;13.390;2022-10-23T07:11:03;11.77;;;6.30;;
19727;SDS011;10015;52.530;13.390;2022-10-23T07:13:32;11.30;;;6.33;;
19727;SDS011;10015;52.530;13.390;2022-10-23T07:16:11;12.60;;;6.97;;
19727;SDS011;10015;52.530;13.390;2022-10-23T07:18:40;11.03;;;6.47;;
19727;SDS011;10015;52.530;13.390;2022-10-23T07:21:30;10.77;;;6.50;;
19727;SDS011;10015;52.530;13.390;2022-10-23T07:24:18;12.83;;;6.83;;
19727;SDS011;10015;52.530;13.390;2022-10-23T07:26:44;10.90;;;6.57;;
19727;SDS011;10015;52.530;13.390;2022-10-23T07:29:10;12.27;;;7.23;;
19727;SDS011;10015;52.530;13.390;2022-10-23T07:31:36;10.00;;;6.63;;
19727;SDS011;10015;52.530;13.390;2022-10-23T07:34:21;10.63;;;6.43;;
19727;SDS011;10015;52.530;13.390;2022-10-23T07:36:58;12.17;;;7.40;;
19727;SDS011;10015;52.530;13.390;2022-10-23T07:39:24;9.60;;;7.00;;
19727;SDS011;10015;52.530;13.390;2022-10-23T07:41:51;10.40;;;6.93;;
19727;SDS011;10015;52.530;13.390;2022-10-23T07:44:17;10.27;;;6.90;;
19727;SDS011;10015;52.530;13.390;2022-10-23T07:46:43;12.57;;;7.13;;
19727;SDS011;10015;52.530;13.390;2022-10-23T07:49:09;10.77;;;7.03;;
19727;SDS011;10015;52.530;13.390;2022-10-23T07:51:37;14.50;;;7.57;;
19727;SDS011;10015;52.530;13.390;2022-10-23T07:54:03;11.57;;;6.93;;
19727;SDS011;10015;52.530;13.390;2022-10-23T07:56:47;12.33;;;7.53;;
19727;SDS011;10015;52.530;13.390;2022-10-23T07:59:16;10.03;;;6.57;;
19727;SDS011;10015;52.530;13.390;2022-10-23T08:01:48;10.53;;;6.87;;
19727;SDS011;10015;52.530;13.390;2022-10-23T08:04:14;11.23;;;6.77;;
19727;SDS011;10015;52.530;13.390;2022-10-23T08:06:49;13.30;;;7.00;;
19727;SDS011;10015;52.530;13.390;2022-10-23T08:09:15;12.67;;;6.50;;
19727;SDS011;10015;52.530;13.390;2022-10-23T08:11:41;14.17;;;7.20;;
19727;SDS011;10015;52.530;13.390;2022-10-23T08:14:10;13.63;;;6.70;;
19727;SDS011;10015;52.530;13.390;2022-10-23T08:16:38;10.43;;;6.50;;
19727;SDS011;10015;52.530;13.390;2022-10-23T08:19:36;11.47;;;6.40;;
19727;SDS011;10015;52.530;13.390;2022-10-23T08:22:02;8.83;;;5.90;;
19727;SDS011;10015;52.530;13.390;2022-10-23T08:24:28;13.27;;;6.40;;
19727;SDS011;10015;52.530;13.390;2022-10-23T08:26:54;10.20;;;6.17;;
19727;SDS011;10015;52.530;13.390;2022-10-23T08:29:22;9.00;;;5.33;;
19727;SDS011;10015;52.530;13.390;2022-10-23T08:31:51;9.47;;;5.73;;
19727;SDS011;10015;52.530;13.390;2022-10-23T08:34:23;14.43;;;6.00;;
19727;SDS011;10015;52.530;13.390;2022-10-23T08:36:51;7.80;;;5.53;;
19727;SDS011;10015;52.530;13.390;2022-10-23T08:39:17;8.17;;;5.50;;
19727;SDS011;10015;52.530;13.390;2022-10-23T08:42:23;8.47;;;5.40;;
19727;SDS011;10015;52.530;13.390;2022-10-23T08:47:45;8.97;;;5.30;;
19727;SDS011;10015;52.530;13.390;2022-10-23T08:50:35;7.93;;;4.73;;
19727;SDS011;10015;52.530;13.390;2022-10-23T08:55:56;9.37;;;4.80;;
19727;SDS011;10015;52.530;13.390;2022-10-23T08:58:37;7.97;;;4.43;;
19727;SDS011;10015;52.530;13.390;2022-10-23T09:01:26;7.73;;;4.20;;
19727;SDS011;10015;52.530;13.390;2022-10-23T09:04:08;10.33;;;4.10;;
19727;SDS011;10015;52.530;13.390;2022-10-23T09:06:41;8.10;;;4.10;;
19727;SDS011;10015;52.530;13.390;2022-10-23T09:12:10;7.87;;;3.97;;
19727;SDS011;10015;52.530;13.390;2022-10-23T09:17:43;4.37;;;3.13;;
19727;SDS011;10015;52.530;13.390;2022-10-23T09:22:49;9.00;;;4.27;;
19727;SDS011;10015;52.530;13.390;2022-10-23T09:25:22;10.87;;;4.50;;
19727;SDS011;10015;52.530;13.390;2022-10-23T09:27:51;6.27;;;3.77;;
19727;SDS011;10015;52.530;13.390;2022-10-23T09:30:36;10.20;;;4.40;;
19727;SDS011;10015;52.530;13.390;2022-10-23T09:33:20;8.40;;;4.13;;
19727;SDS011;10015;52.530;13.390;2022-10-23T09:36:28;7.23;;;4.07;;
19727;SDS011;10015;52.530;13.390;2022-10-23T09:46:39;6.03;;;3.83;;
19727;SDS011;10015;52.530;13.390;2022-10-23T09:49:05;7.83;;;3.77;;
19727;SDS011;10015;52.530;13.390;2022-10-23T09:54:31;7.30;;;3.90;;
19727;SDS011;10015;52.530;13.390;2022-10-23T09:57:14;8.23;;;3.50;;
19727;SDS011;10015;52.530;13.390;2022-10-23T09:59:48;6.60;;;3.20;;
19727;SDS011;10015;52.530;13.390;2022-10-23T10:02:26;6.57;;;2.77;;
19727;SDS011;10015;52.530;13.390;2022-10-23T10:05:24;6.13;;;3.23;;
19727;SDS011;10015;52.530;13.390;2022-10-23T10:08:09;5.00;;;3.07;;
19727;SDS011;10015;52.530;13.390;2022-10-23T10:16:06;5.80;;;2.73;;
19727;SDS011;10015;52.530;13.390;2022-10-23T10:19:14;7.83;;;3.30;;
19727;SDS011;10015;52.530;13.390;2022-10-23T10:22:04;7.17;;;2.57;;
19727;SDS011;10015;52.530;13.390;2022-10-23T10:24:41;5.70;;;2.00;;
19727;SDS011;10015;52.530;13.390;2022-10-23T10:35:42;6.70;;;2.30;;
19727;SDS011;10015;52.530;13.390;2022-10-23T10:38:33;5.73;;;2.47;;
19727;SDS011;10015;52.530;13.390;2022-10-23T10:46:50;3.13;;;2.17;;
19727;SDS011;10015;52.530;13.390;2022-10-23T10:49:40;4.63;;;2.07;;
19727;SDS011;10015;52.530;13.390;2022-10-23T10:52:24;4.97;;;2.30;;
19727;SDS011;10015;52.530;13.390;2022-10-23T10:55:12;6.07;;;2.20;;
19727;SDS011;10015;52.530;13.390;2022-10-23T11:00:26;4.30;;;2.57;;
19727;SDS011;10015;52.530;13.390;2022-10-23T11:05:56;7.23;;;2.97;;
19727;SDS011;10015;52.530;13.390;2022-10-23T11:08:33;5.10;;;2.67;;
19727;SDS011;10015;52.530;13.390;2022-10-23T11:11:06;8.13;;;2.33;;
19727;SDS011;10015;52.530;13.390;2022-10-23T11:13:41;6.13;;;2.63;;
19727;SDS011;10015;52.530;13.390;2022-10-23T11:16:12;5.10;;;3.00;;
19727;SDS011;10015;52.530;13.390;2022-10-23T11:18:52;10.17;;;3.13;;
19727;SDS011;10015;52.530;13.390;2022-10-23T11:21:39;7.40;;;3.20;;
19727;SDS011;10015;52.530;13.390;2022-10-23T11:38:16;6.67;;;3.00;;
19727;SDS011;10015;52.530;13.390;2022-10-23T11:40:57;6.97;;;3.10;;
19727;SDS011;10015;52.530;13.390;2022-10-23T11:48:53;4.93;;;2.93;;
19727;SDS011;10015;52.530;13.390;2022-10-23T11:51:31;5.47;;;2.80;;
19727;SDS011;10015;52.530;13.390;2022-10-23T12:04:49;4.17;;;1.83;;
19727;SDS011;10015;52.530;13.390;2022-10-23T12:09:52;7.87;;;2.20;;
19727;SDS011;10015;52.530;13.390;2022-10-23T12:12:34;4.27;;;1.50;;
19727;SDS011;10015;52.530;13.390;2022-10-23T12:17:39;2.80;;;1.80;;
19727;SDS011;10015;52.530;13.390;2022-10-23T12:22:37;3.53;;;1.90;;
19727;SDS011;10015;52.530;13.390;2022-10-23T12:25:21;4.93;;;1.70;;
19727;SDS011;10015;52.530;13.390;2022-10-23T12:28:07;4.07;;;2.00;;
19727;SDS011;10015;52.530;13.390;2022-10-23T12:36:16;3.27;;;2.03;;
19727;SDS011;10015;52.530;13.390;2022-10-23T12:38:53;5.73;;;3.00;;
19727;SDS011;10015;52.530;13.390;2022-10-23T12:41:26;5.10;;;2.17;;
19727;SDS011;10015;52.530;13.390;2022-10-23T12:43:56;4.37;;;2.20;;
19727;SDS011;10015;52.530;13.390;2022-10-23T12:46:26;4.63;;;2.03;;
19727;SDS011;10015;52.530;13.390;2022-10-23T12:49:15;5.00;;;2.37;;
19727;SDS011;10015;52.530;13.390;2022-10-23T12:51:43;6.77;;;2.00;;
19727;SDS011;10015;52.530;13.390;2022-10-23T12:54:16;5.70;;;2.07;;
19727;SDS011;10015;52.530;13.390;2022-10-23T12:56:44;4.67;;;1.77;;
19727;SDS011;10015;52.530;13.390;2022-10-23T12:59:15;5.07;;;1.90;;
19727;SDS011;10015;52.530;13.390;2022-10-23T13:01:43;5.70;;;2.03;;
19727;SDS011;10015;52.530;13.390;2022-10-23T13:06:46;3.93;;;2.07;;
19727;SDS011;10015;52.530;13.390;2022-10-23T13:09:26;6.13;;;2.10;;
19727;SDS011;10015;52.530;13.390;2022-10-23T13:12:26;4.43;;;2.40;;
19727;SDS011;10015;52.530;13.390;2022-10-23T13:14:55;4.20;;;2.07;;
19727;SDS011;10015;52.530;13.390;2022-10-23T13:17:21;6.53;;;1.80;;
19727;SDS011;10015;52.530;13.390;2022-10-23T13:20:18;3.83;;;1.90;;
19727;SDS011;10015;52.530;13.390;2022-10-23T13:22:47;4.37;;;2.10;;
19727;SDS011;10015;52.530;13.390;2022-10-23T13:25:27;9.23;;;2.40;;
19727;SDS011;10015;52.530;13.390;2022-10-23T13:30:34;7.80;;;2.60;;
19727;SDS011;10015;52.530;13.390;2022-10-23T13:35:55;6.77;;;2.80;;
19727;SDS011;10015;52.530;13.390;2022-10-23T13:38:27;5.27;;;2.97;;
19727;SDS011;10015;52.530;13.390;2022-10-23T13:40:57;4.70;;;2.40;;
19727;SDS011;10015;52.530;13.390;2022-10-23T13:43:24;3.17;;;2.07;;
19727;SDS011;10015;52.530;13.390;2022-10-23T13:45:51;4.03;;;2.17;;
19727;SDS011;10015;52.530;13.390;2022-10-23T13:48:18;5.00;;;2.10;;
19727;SDS011;10015;52.530;13.390;2022-10-23T13:50:45;5.37;;;1.97;;
19727;SDS011;10015;52.530;13.390;2022-10-23T13:53:11;5.53;;;2.10;;
19727;SDS011;10015;52.530;13.390;2022-10-23T13:55:37;5.30;;;2.30;;
19727;SDS011;10015;52.530;13.390;2022-10-23T13:58:07;4.50;;;2.40;;
19727;SDS011;10015;52.530;13.390;2022-10-23T14:00:34;4.57;;;2.03;;
19727;SDS011;10015;52.530;13.390;2022-10-23T14:03:00;4.17;;;2.40;;
19727;SDS011;10015;52.530;13.390;2022-10-23T14:05:27;7.53;;;2.30;;
19727;SDS011;10015;52.530;13.390;2022-10-23T14:07:53;4.03;;;1.93;;
19727;SDS011;10015;52.530;13.390;2022-10-23T14:10:18;8.57;;;2.43;;
19727;SDS011;10015;52.530;13.390;2022-10-23T14:12:45;4.73;;;1.97;;
19727;SDS011;10015;52.530;13.390;2022-10-23T14:15:10;6.40;;;2.13;;
19727;SDS011;10015;52.530;13.390;2022-10-23T14:17:37;5.20;;;2.30;;
19727;SDS011;10015;52.530;13.390;2022-10-23T14:20:03;4.50;;;2.00;;
19727;SDS011;10015;52.530;13.390;2022-10-23T14:22:29;5.27;;;2.07;;
19727;SDS011;10015;52.530;13.390;2022-10-23T14:24:55;5.73;;;2.10;;
19727;SDS011;10015;52.530;13.390;2022-10-23T14:27:21;6.63;;;2.23;;
19727;SDS011;10015;52.530;13.390;2022-10-23T14:29:47;8.97;;;2.33;;
19727;SDS011;10015;52.530;13.390;2022-10-23T14:32:13;4.53;;;2.00;;
19727;SDS011;10015;52.530;13.390;2022-10-23T14:34:39;7.43;;;2.23;;
19727;SDS011;10015;52.530;13.390;2022-10-23T14:37:08;6.53;;;2.33;;
19727;SDS011;10015;52.530;13.390;2022-10-23T14:39:34;7.20;;;2.40;;
19727;SDS011;10015;52.530;13.390;2022-10-23T14:42:00;5.93;;;1.90;;
19727;SDS011;10015;52.530;13.390;2022-10-23T14:44:26;5.40;;;2.40;;
19727;SDS011;10015;52.530;13.390;2022-10-23T14:46:52;5.90;;;2.27;;
19727;SDS011;10015;52.530;13.390;2022-10-23T14:49:21;5.63;;;2.30;;
19727;SDS011;10015;52.530;13.390;2022-10-23T14:51:47;5.17;;;2.40;;
19727;SDS011;10015;52.530;13.390;2022-10-23T14:54:13;7.70;;;2.97;;
19727;SDS011;10015;52.530;13.390;2022-10-23T14:56:39;7.17;;;2.57;;
19727;SDS011;10015;52.530;13.390;2022-10-23T14:59:05;6.70;;;2.50;;
19727;SDS011;10015;52.530;13.390;2022-10-23T15:01:39;5.73;;;2.40;;
19727;SDS011;10015;52.530;13.390;2022-10-23T15:04:07;6.57;;;2.40;;
19727;SDS011;10015;52.530;13.390;2022-10-23T15:06:34;5.23;;;2.50;;
19727;SDS011;10015;52.530;13.390;2022-10-23T15:09:00;6.93;;;2.43;;
19727;SDS011;10015;52.530;13.390;2022-10-23T15:11:27;8.90;;;2.80;;
19727;SDS011;10015;52.530;13.390;2022-10-23T15:13:54;6.13;;;2.60;;
19727;SDS011;10015;52.530;13.390;2022-10-23T15:16:21;8.40;;;2.60;;
19727;SDS011;10015;52.530;13.390;2022-10-23T15:18:47;7.23;;;2.70;;
19727;SDS011;10015;52.530;13.390;2022-10-23T15:21:14;5.07;;;2.60;;
19727;SDS011;10015;52.530;13.390;2022-10-23T15:23:40;5.53;;;2.33;;
19727;SDS011;10015;52.530;13.390;2022-10-23T15:26:08;9.33;;;2.80;;
19727;SDS011;10015;52.530;13.390;2022-10-23T15:28:44;7.43;;;3.00;;
19727;SDS011;10015;52.530;13.390;2022-10-23T15:33:56;4.87;;;2.90;;
19727;SDS011;10015;52.530;13.390;2022-10-23T15:36:23;5.50;;;3.17;;
19727;SDS011;10015;52.530;13.390;2022-10-23T15:38:49;7.87;;;3.20;;
19727;SDS011;10015;52.530;13.390;2022-10-23T15:41:16;7.50;;;2.70;;
19727;SDS011;10015;52.530;13.390;2022-10-23T15:43:46;6.20;;;3.03;;
19727;SDS011;10015;52.530;13.390;2022-10-23T15:46:12;8.93;;;2.87;;
19727;SDS011;10015;52.530;13.390;2022-10-23T15:48:38;7.30;;;2.73;;
19727;SDS011;10015;52.530;13.390;2022-10-23T15:51:04;7.80;;;3.30;;
19727;SDS011;10015;52.530;13.390;2022-10-23T15:53:31;9.67;;;3.30;;
19727;SDS011;10015;52.530;13.390;2022-10-23T15:55:57;6.47;;;3.30;;
19727;SDS011;10015;52.530;13.390;2022-10-23T15:58:23;6.93;;;3.13;;
19727;SDS011;10015;52.530;13.390;2022-10-23T16:00:50;6.93;;;3.20;;
19727;SDS011;10015;52.530;13.390;2022-10-23T16:03:16;9.37;;;3.20;;
19727;SDS011;10015;52.530;13.390;2022-10-23T16:05:42;6.30;;;3.13;;
19727;SDS011;10015;52.530;13.390;2022-10-23T16:08:08;11.50;;;3.57;;
19727;SDS011;10015;52.530;13.390;2022-10-23T16:10:37;6.50;;;3.17;;
19727;SDS011;10015;52.530;13.390;2022-10-23T16:13:07;6.00;;;3.60;;
19727;SDS011;10015;52.530;13.390;2022-10-23T16:15:36;9.47;;;3.87;;
19727;SDS011;10015;52.530;13.390;2022-10-23T16:18:03;12.63;;;4.03;;
19727;SDS011;10015;52.530;13.390;2022-10-23T16:20:30;7.23;;;3.30;;
19727;SDS011;10015;52.530;13.390;2022-10-23T16:22:56;9.03;;;3.53;;
19727;SDS011;10015;52.530;13.390;2022-10-23T16:25:22;7.13;;;3.43;;
19727;SDS011;10015;52.530;13.390;2022-10-23T16:27:48;6.10;;;3.30;;
19727;SDS011;10015;52.530;13.390;2022-10-23T16:30:15;7.37;;;3.23;;
19727;SDS011;10015;52.530;13.390;2022-10-23T16:32:41;6.77;;;3.23;;
19727;SDS011;10015;52.530;13.390;2022-10-23T16:35:07;10.00;;;3.87;;
19727;SDS011;10015;52.530;13.390;2022-10-23T16:37:45;8.10;;;3.60;;
19727;SDS011;10015;52.530;13.390;2022-10-23T16:40:15;5.67;;;3.23;;
19727;SDS011;10015;52.530;13.390;2022-10-23T16:42:59;9.23;;;4.00;;
19727;SDS011;10015;52.530;13.390;2022-10-23T16:45:31;7.63;;;3.93;;
19727;SDS011;10015;52.530;13.390;2022-10-23T16:47:57;6.83;;;2.93;;
19727;SDS011;10015;52.530;13.390;2022-10-23T16:50:23;4.97;;;2.93;;
19727;SDS011;10015;52.530;13.390;2022-10-23T16:52:49;6.00;;;3.03;;
19727;SDS011;10015;52.530;13.390;2022-10-23T16:55:15;8.83;;;3.17;;
19727;SDS011;10015;52.530;13.390;2022-10-23T16:57:41;12.90;;;3.50;;
19727;SDS011;10015;52.530;13.390;2022-10-23T17:00:07;7.40;;;3.57;;
19727;SDS011;10015;52.530;13.390;2022-10-23T17:02:33;9.00;;;4.13;;
19727;SDS011;10015;52.530;13.390;2022-10-23T17:04:59;7.13;;;3.83;;
19727;SDS011;10015;52.530;13.390;2022-10-23T17:07:25;11.40;;;4.00;;
19727;SDS011;10015;52.530;13.390;2022-10-23T17:09:51;9.47;;;4.20;;
19727;SDS011;10015;52.530;13.390;2022-10-23T17:12:17;7.80;;;3.93;;
19727;SDS011;10015;52.530;13.390;2022-10-23T17:14:43;9.90;;;4.67;;
19727;SDS011;10015;52.530;13.390;2022-10-23T17:17:09;10.23;;;4.13;;
19727;SDS011;10015;52.530;13.390;2022-10-23T17:19:35;7.73;;;4.40;;
19727;SDS011;10015;52.530;13.390;2022-10-23T17:22:05;10.20;;;4.87;;
19727;SDS011;10015;52.530;13.390;2022-10-23T17:24:35;8.73;;;4.20;;
19727;SDS011;10015;52.530;13.390;2022-10-23T17:27:02;11.90;;;5.33;;
19727;SDS011;10015;52.530;13.390;2022-10-23T17:29:29;10.17;;;5.10;;
19727;SDS011;10015;52.530;13.390;2022-10-23T17:31:55;9.73;;;5.30;;
19727;SDS011;10015;52.530;13.390;2022-10-23T17:34:21;10.17;;;5.90;;
19727;SDS011;10015;52.530;13.390;2022-10-23T17:36:48;13.20;;;6.80;;
19727;SDS011;10015;52.530;13.390;2022-10-23T17:39:17;15.77;;;7.00;;
19727;SDS011;10015;52.530;13.390;2022-10-23T17:41:45;11.00;;;6.53;;
19727;SDS011;10015;52.530;13.390;2022-10-23T17:44:11;9.63;;;5.57;;
19727;SDS011;10015;52.530;13.390;2022-10-23T17:46:37;9.60;;;6.00;;
19727;SDS011;10015;52.530;13.390;2022-10-23T17:49:03;11.47;;;6.10;;
19727;SDS011;10015;52.530;13.390;2022-10-23T17:51:31;10.10;;;5.83;;
19727;SDS011;10015;52.530;13.390;2022-10-23T17:53:59;11.83;;;6.17;;
19727;SDS011;10015;52.530;13.390;2022-10-23T17:56:28;12.63;;;5.90;;
19727;SDS011;10015;52.530;13.390;2022-10-23T17:59:00;8.70;;;5.43;;
19727;SDS011;10015;52.530;13.390;2022-10-23T18:01:28;10.27;;;5.73;;
19727;SDS011;10015;52.530;13.390;2022-10-23T18:03:55;11.43;;;5.80;;
19727;SDS011;10015;52.530;13.390;2022-10-23T18:06:25;9.73;;;5.53;;
19727;SDS011;10015;52.530;13.390;2022-10-23T18:08:52;11.00;;;5.23;;
19727;SDS011;10015;52.530;13.390;2022-10-23T18:11:20;8.17;;;5.40;;
19727;SDS011;10015;52.530;13.390;2022-10-23T18:13:49;8.73;;;5.53;;
19727;SDS011;10015;52.530;13.390;2022-10-23T18:16:16;10.50;;;5.03;;
19727;SDS011;10015;52.530;13.390;2022-10-23T18:18:43;9.10;;;5.50;;
19727;SDS011;10015;52.530;13.390;2022-10-23T18:21:12;10.13;;;5.37;;
19727;SDS011;10015;52.530;13.390;2022-10-23T18:23:40;9.20;;;5.50;;
19727;SDS011;10015;52.530;13.390;2022-10-23T18:26:11;11.13;;;5.40;;
19727;SDS011;10015;52.530;13.390;2022-10-23T18:28:41;9.83;;;5.07;;
19727;SDS011;10015;52.530;13.390;2022-10-23T18:31:09;10.83;;;6.23;;
19727;SDS011;10015;52.530;13.390;2022-10-23T18:33:36;9.40;;;5.20;;
19727;SDS011;10015;52.530;13.390;2022-10-23T18:36:02;10.47;;;5.17;;
19727;SDS011;10015;52.530;13.390;2022-10-23T18:38:36;8.90;;;5.00;;
19727;SDS011;10015;52.530;13.390;2022-10-23T18:41:02;9.30;;;5.10;;
19727;SDS011;10015;52.530;13.390;2022-10-23T18:43:28;9.10;;;5.43;;
19727;SDS011;10015;52.530;13.390;2022-10-23T18:45:54;10.43;;;5.13;;
19727;SDS011;10015;52.530;13.390;2022-10-23T18:48:20;7.30;;;4.60;;
19727;SDS011;10015;52.530;13.390;2022-10-23T18:50:47;10.80;;;4.80;;
19727;SDS011;10015;52.530;13.390;2022-10-23T18:53:13;10.83;;;5.13;;
19727;SDS011;10015;52.530;13.390;2022-10-23T18:55:46;8.77;;;5.00;;
19727;SDS011;10015;52.530;13.390;2022-10-23T18:58:16;9.87;;;4.77;;
19727;SDS011;10015;52.530;13.390;2022-10-23T19:01:02;7.67;;;4.37;;
19727;SDS011;10015;52.530;13.390;2022-10-23T19:03:28;8.90;;;4.83;;
19727;SDS011;10015;52.530;13.390;2022-10-23T19:05:54;11.43;;;4.67;;
19727;SDS011;10015;52.530;13.390;2022-10-23T19:08:20;6.57;;;4.30;;
19727;SDS011;10015;52.530;13.390;2022-10-23T19:10:46;8.73;;;4.93;;
19727;SDS011;10015;52.530;13.390;2022-10-23T19:13:13;7.77;;;4.23;;
19727;SDS011;10015;52.530;13.390;2022-10-23T19:15:41;9.33;;;3.73;;
19727;SDS011;10015;52.530;13.390;2022-10-23T19:18:07;8.27;;;4.30;;
19727;SDS011;10015;52.530;13.390;2022-10-23T19:20:33;8.53;;;4.50;;
19727;SDS011;10015;52.530;13.390;2022-10-23T19:23:00;6.93;;;4.43;;
19727;SDS011;10015;52.530;13.390;2022-10-23T19:25:29;9.10;;;3.87;;
19727;SDS011;10015;52.530;13.390;2022-10-23T19:27:57;7.30;;;3.73;;
19727;SDS011;10015;52.530;13.390;2022-10-23T19:30:26;10.90;;;4.30;;
19727;SDS011;10015;52.530;13.390;2022-10-23T19:32:54;7.50;;;4.30;;
19727;SDS011;10015;52.530;13.390;2022-10-23T19:35:20;7.07;;;4.30;;
19727;SDS011;10015;52.530;13.390;2022-10-23T19:37:47;7.40;;;4.40;;
19727;SDS011;10015;52.530;13.390;2022-10-23T19:40:13;7.80;;;4.20;;
19727;SDS011;10015;52.530;13.390;2022-10-23T19:42:40;7.87;;;4.07;;
19727;SDS011;10015;52.530;13.390;2022-10-23T19:45:08;6.93;;;4.47;;
19727;SDS011;10015;52.530;13.390;2022-10-23T19:47:36;6.47;;;3.93;;
19727;SDS011;10015;52.530;13.390;2022-10-23T19:50:04;7.77;;;4.47;;
19727;SDS011;10015;52.530;13.390;2022-10-23T19:52:31;9.43;;;4.57;;
19727;SDS011;10015;52.530;13.390;2022-10-23T19:54:58;7.73;;;4.23;;
19727;SDS011;10015;52.530;13.390;2022-10-23T19:57:24;7.30;;;4.27;;
19727;SDS011;10015;52.530;13.390;2022-10-23T19:59:51;7.23;;;4.07;;
19727;SDS011;10015;52.530;13.390;2022-10-23T20:02:17;10.27;;;4.90;;
19727;SDS011;10015;52.530;13.390;2022-10-23T20:04:44;9.37;;;4.70;;
19727;SDS011;10015;52.530;13.390;2022-10-23T20:07:11;7.93;;;4.30;;
19727;SDS011;10015;52.530;13.390;2022-10-23T20:09:37;8.00;;;4.43;;
19727;SDS011;10015;52.530;13.390;2022-10-23T20:12:03;10.37;;;4.37;;
19727;SDS011;10015;52.530;13.390;2022-10-23T20:14:29;9.70;;;4.93;;
19727;SDS011;10015;52.530;13.390;2022-10-23T20:16:55;10.83;;;4.70;;
19727;SDS011;10015;52.530;13.390;2022-10-23T20:19:21;7.13;;;4.30;;
19727;SDS011;10015;52.530;13.390;2022-10-23T20:21:47;6.97;;;4.63;;
19727;SDS011;10015;52.530;13.390;2022-10-23T20:24:14;7.93;;;4.50;;
19727;SDS011;10015;52.530;13.390;2022-10-23T20:26:42;9.07;;;5.07;;
19727;SDS011;10015;52.530;13.390;2022-10-23T20:29:10;8.83;;;4.50;;
19727;SDS011;10015;52.530;13.390;2022-10-23T20:31:37;9.83;;;4.57;;
19727;SDS011;10015;52.530;13.390;2022-10-23T20:34:04;8.13;;;4.90;;
19727;SDS011;10015;52.530;13.390;2022-10-23T20:36:32;7.93;;;4.80;;
19727;SDS011;10015;52.530;13.390;2022-10-23T20:39:01;7.90;;;4.83;;
19727;SDS011;10015;52.530;13.390;2022-10-23T20:41:31;6.70;;;4.30;;
19727;SDS011;10015;52.530;13.390;2022-10-23T20:43:58;6.87;;;4.50;;
19727;SDS011;10015;52.530;13.390;2022-10-23T20:46:25;8.10;;;4.03;;
19727;SDS011;10015;52.530;13.390;2022-10-23T20:48:52;7.57;;;4.87;;
19727;SDS011;10015;52.530;13.390;2022-10-23T20:51:19;8.73;;;5.53;;
19727;SDS011;10015;52.530;13.390;2022-10-23T20:53:46;8.33;;;4.70;;
19727;SDS011;10015;52.530;13.390;2022-10-23T20:56:14;9.93;;;4.60;;
19727;SDS011;10015;52.530;13.390;2022-10-23T20:58:42;9.00;;;4.97;;
19727;SDS011;10015;52.530;13.390;2022-10-23T21:01:10;10.40;;;5.37;;
19727;SDS011;10015;52.530;13.390;2022-10-23T21:03:37;10.97;;;4.90;;
19727;SDS011;10015;52.530;13.390;2022-10-23T21:08:31;10.47;;;5.47;;
19727;SDS011;10015;52.530;13.390;2022-10-23T21:10:57;8.67;;;5.17;;
19727;SDS011;10015;52.530;13.390;2022-10-23T21:13:23;8.33;;;4.93;;
19727;SDS011;10015;52.530;13.390;2022-10-23T21:15:49;10.57;;;5.33;;
19727;SDS011;10015;52.530;13.390;2022-10-23T21:18:15;9.27;;;5.03;;
19727;SDS011;10015;52.530;13.390;2022-10-23T21:20:42;8.43;;;4.87;;
19727;SDS011;10015;52.530;13.390;2022-10-23T21:23:09;10.67;;;5.40;;
19727;SDS011;10015;52.530;13.390;2022-10-23T21:25:38;10.83;;;5.13;;
19727;SDS011;10015;52.530;13.390;2022-10-23T21:28:05;9.90;;;5.17;;
19727;SDS011;10015;52.530;13.390;2022-10-23T21:30:33;9.93;;;5.50;;
19727;SDS011;10015;52.530;13.390;2022-10-23T21:32:59;10.17;;;5.23;;
19727;SDS011;10015;52.530;13.390;2022-10-23T21:35:26;11.33;;;5.30;;
19727;SDS011;10015;52.530;13.390;2022-10-23T21:37:51;10.57;;;5.73;;
19727;SDS011;10015;52.530;13.390;2022-10-23T21:40:17;9.80;;;5.90;;
19727;SDS011;10015;52.530;13.390;2022-10-23T21:42:43;11.53;;;5.83;;
19727;SDS011;10015;52.530;13.390;2022-10-23T21:45:09;13.13;;;5.67;;
19727;SDS011;10015;52.530;13.390;2022-10-23T21:47:35;10.60;;;5.57;;
19727;SDS011;10015;52.530;13.390;2022-10-23T21:50:01;10.97;;;5.43;;
19727;SDS011;10015;52.530;13.390;2022-10-23T21:52:28;8.43;;;5.30;;
19727;SDS011;10015;52.530;13.390;2022-10-23T21:54:54;8.50;;;5.10;;
19727;SDS011;10015;52.530;13.390;2022-10-23T21:59:53;7.13;;;5.10;;
19727;SDS011;10015;52.530;13.390;2022-10-23T22:02:19;11.23;;;5.40;;
19727;SDS011;10015;52.530;13.390;2022-10-23T22:04:45;9.13;;;5.53;;
19727;SDS011;10015;52.530;13.390;2022-10-23T22:07:11;10.07;;;5.43;;
19727;SDS011;10015;52.530;13.390;2022-10-23T22:09:39;11.77;;;5.70;;